Time;durP1;ratioP1;P1;durP2;ratioP2;P2;SDS_P1;SDS_P2;PMS_P1;PMS_P2;Temp;Humidity;BMP_temperature;BMP_pressure;BME280_temperature;BME280_humidity;BME280_pressure;Samples;Min_cycle;Max_cycle;Signal;HPM_P1;HPM_P2
2023/12/12 00:03:51;;;;;;;0.22;0.20;;;;;;;28.31;76.72;100705.41;10459547;28;20522;-84
2023/12/12 00:08:53;;;;;;;0.35;0.35;;;;;;;27.76;77.69;100701.94;10458263;28;20041;-83
2023/12/12 00:13:55;;;;;;;0.28;0.28;;;;;;;28.43;76.30;100688.03;10457483;28;20079;-83
2023/12/12 00:18:56;;;;;;;0.10;0.10;;;;;;;29.13;74.20;100688.66;10455617;28;20060;-83
2023/12/12 00:23:59;;;;;;;0.40;0.38;;;;;;;29.47;73.18;100690.38;10476595;28;20033;-83
2023/12/12 00:29:01;;;;;;;0.17;0.17;;;;;;;29.94;71.94;100693.88;10462484;28;20123;-84
2023/12/12 00:34:03;;;;;;;0.40;0.30;;;;;;;28.83;72.06;100698.31;10444133;28;20063;-84
2023/12/12 00:39:06;;;;;;;0.00;0.00;;;;;;;29.85;72.63;100695.25;10449347;28;20056;-84
2023/12/12 00:44:08;;;;;;;0.00;0.00;;;;;;;29.51;73.41;100686.63;10456941;28;20079;-84
2023/12/12 00:49:10;;;;;;;0.32;0.32;;;;;;;29.11;73.97;100693.19;10457046;28;20436;-84
2023/12/12 00:54:12;;;;;;;0.25;0.20;;;;;;;29.13;72.20;100699.28;10457684;28;20045;-84
2023/12/12 00:59:15;;;;;;;0.28;0.20;;;;;;;29.54;74.10;100699.69;10438498;28;20128;-84
2023/12/12 01:04:17;;;;;;;6.65;0.47;;;;;;;26.74;76.46;100698.75;10456676;28;20491;-83
2023/12/12 01:09:19;;;;;;;0.32;0.17;;;;;;;27.28;76.83;100692.78;10461827;28;20128;-83
2023/12/12 01:14:21;;;;;;;0.63;0.40;;;;;;;27.06;79.39;100693.81;10453284;28;20041;-83
2023/12/12 01:19:24;;;;;;;0.10;0.10;;;;;;;28.33;76.67;100687.66;10447602;28;20678;-83
2023/12/12 01:24:26;;;;;;;0.17;0.17;;;;;;;28.75;75.20;100688.97;10444278;28;20082;-83
2023/12/12 01:29:28;;;;;;;0.80;0.35;;;;;;;26.12;81.54;100693.50;10440272;28;20506;-83
2023/12/12 01:34:30;;;;;;;1.15;0.73;;;;;;;26.06;84.00;100678.75;10447339;28;20044;-83
2023/12/12 01:39:32;;;;;;;1.45;0.65;;;;;;;25.90;80.38;100680.34;10465711;28;20090;-83
2023/12/12 01:44:33;;;;;;;0.30;0.30;;;;;;;26.90;78.17;100681.31;10435096;28;20101;-83
2023/12/12 01:49:36;;;;;;;1.17;0.55;;;;;;;26.72;80.98;100679.47;10435751;28;20103;-83
2023/12/12 01:54:41;;;;;;;0.20;0.20;;;;;;;27.79;76.21;100670.03;10458222;28;20048;-82
2023/12/12 01:59:45;;;;;;;1.25;0.73;;;;;;;27.60;75.09;100671.88;10451354;28;20045;-83
2023/12/12 02:04:48;;;;;;;0.85;0.45;;;;;;;25.98;78.61;100670.31;10423302;28;20048;-83
2023/12/12 02:09:52;;;;;;;0.52;0.50;;;;;;;29.19;72.51;100673.34;10452818;28;20033;-82
2023/12/12 02:14:54;;;;;;;1.52;0.85;;;;;;;28.43;72.95;100667.66;10444793;28;20095;-83
2023/12/12 02:19:57;;;;;;;2.30;1.23;;;;;;;27.22;74.16;100663.03;10446575;28;20056;-83
2023/12/12 02:24:59;;;;;;;0.32;0.32;;;;;;;27.17;74.32;100675.63;10434694;28;20119;-83
2023/12/12 02:30:01;;;;;;;3.85;0.50;;;;;;;28.06;73.27;100664.28;10431096;28;20084;-83
2023/12/12 02:35:03;;;;;;;0.13;0.13;;;;;;;27.15;74.79;100661.63;10421799;28;20131;-83
2023/12/12 02:40:06;;;;;;;3.97;1.67;;;;;;;26.80;74.83;100666.78;10439743;28;20369;-83
2023/12/12 02:45:08;;;;;;;1.08;0.88;;;;;;;26.80;73.25;100671.22;10438488;28;20384;-84
2023/12/12 02:50:10;;;;;;;1.15;0.57;;;;;;;26.44;73.87;100670.97;10446349;28;20087;-84
2023/12/12 02:55:12;;;;;;;1.75;0.82;;;;;;;25.26;72.66;100680.22;10447081;28;20041;-83
2023/12/12 03:00:14;;;;;;;0.30;0.30;;;;;;;25.92;74.08;100674.06;10439738;28;20036;-84
2023/12/12 03:05:16;;;;;;;0.90;0.68;;;;;;;25.89;75.33;100668.91;10455989;28;20049;-84
2023/12/12 03:10:18;;;;;;;2.67;0.47;;;;;;;23.04;78.02;100668.44;10444963;28;20500;-83
2023/12/12 03:15:19;;;;;;;1.08;0.60;;;;;;;24.02;78.65;100658.34;10448330;28;20032;-83
2023/12/12 03:20:22;;;;;;;2.15;0.75;;;;;;;23.16;80.35;100646.16;10436718;28;20061;-83
2023/12/12 03:25:23;;;;;;;1.70;0.73;;;;;;;24.30;81.72;100651.25;10440861;28;20143;-83
2023/12/12 03:30:25;;;;;;;2.85;1.25;;;;;;;23.43;79.70;100660.22;10442886;28;20068;-83
2023/12/12 03:35:27;;;;;;;7.82;0.90;;;;;;;24.54;79.43;100660.03;10434519;28;20492;-83
2023/12/12 03:40:29;;;;;;;2.08;0.68;;;;;;;25.41;74.50;100656.84;10444226;28;20131;-83
2023/12/12 03:45:31;;;;;;;7.10;1.75;;;;;;;28.50;69.76;100658.44;10431569;28;20102;-83
2023/12/12 03:50:32;;;;;;;0.50;0.25;;;;;;;30.07;63.43;100661.22;10453152;28;20556;-83
2023/12/12 03:55:34;;;;;;;0.25;0.25;;;;;;;27.30;65.07;100653.88;10457778;28;20068;-83
2023/12/12 04:00:36;;;;;;;0.38;0.38;;;;;;;28.91;63.43;100656.31;10447112;28;20068;-83
2023/12/12 04:05:38;;;;;;;0.68;0.52;;;;;;;29.86;62.31;100649.19;10457397;28;20048;-83
2023/12/12 04:10:40;;;;;;;0.90;0.45;;;;;;;30.56;60.33;100648.56;10458420;28;20135;-84
2023/12/12 04:15:42;;;;;;;0.00;0.00;;;;;;;29.82;60.86;100647.69;10454829;28;20047;-83
2023/12/12 04:20:46;;;;;;;0.10;0.10;;;;;;;29.93;59.89;100645.25;10436810;28;20144;-84
2023/12/12 04:25:48;;;;;;;0.43;0.20;;;;;;;29.05;58.75;100643.16;10452954;28;20079;-84
2023/12/12 04:30:50;;;;;;;0.28;0.20;;;;;;;30.21;57.58;100639.13;10453999;28;20049;-84
2023/12/12 04:35:52;;;;;;;0.17;0.17;;;;;;;31.30;56.62;100622.56;10451926;28;20041;-84
2023/12/12 04:40:54;;;;;;;0.25;0.20;;;;;;;31.53;55.06;100638.81;10456701;28;20050;-83
2023/12/12 04:45:56;;;;;;;0.40;0.30;;;;;;;31.07;55.85;100639.16;10430741;28;20877;-84
2023/12/12 04:50:58;;;;;;;0.00;0.00;;;;;;;29.08;57.59;100642.13;10451095;28;20535;-84
2023/12/12 04:55:59;;;;;;;0.35;0.32;;;;;;;28.26;60.98;100633.28;10431087;28;20051;-83
2023/12/12 05:01:01;;;;;;;0.00;0.00;;;;;;;28.20;60.25;100630.94;10455095;28;20492;-84
2023/12/12 05:06:03;;;;;;;1.90;0.30;;;;;;;24.28;69.12;100643.44;10449422;28;20037;-84
2023/12/12 05:11:05;;;;;;;0.20;0.20;;;;;;;23.56;72.12;100634.41;10456286;28;20047;-83
2023/12/12 05:16:08;;;;;;;2.95;0.17;;;;;;;28.55;62.49;100609.66;10451013;28;20127;-84
2023/12/12 05:21:29;;;;;;;2.03;0.35;;;;;;;30.34;58.55;100617.09;10459365;28;20053;-84
2023/12/12 05:26:31;;;;;;;0.22;0.22;;;;;;;28.64;60.44;100617.09;10440329;28;20065;-84
2023/12/12 05:31:33;;;;;;;0.10;0.10;;;;;;;29.46;58.67;100598.44;10442126;28;20143;-84
2023/12/12 05:36:35;;;;;;;0.00;0.00;;;;;;;28.36;59.78;100608.00;10449964;28;20045;-83
2023/12/12 05:41:36;;;;;;;0.65;0.45;;;;;;;28.36;60.59;100594.75;10436694;28;20456;-83
2023/12/12 05:46:39;;;;;;;0.65;0.65;;;;;;;29.98;57.79;100594.53;10443126;28;20037;-83
2023/12/12 05:51:40;;;;;;;0.00;0.00;;;;;;;29.47;55.72;100592.19;10446908;28;20051;-83
2023/12/12 05:56:43;;;;;;;0.00;0.00;;;;;;;29.79;54.61;100589.44;10454255;28;20045;-84
2023/12/12 06:01:45;;;;;;;0.45;0.45;;;;;;;28.97;55.46;100587.03;10426996;28;20044;-83
2023/12/12 06:06:47;;;;;;;0.00;0.00;;;;;;;28.96;56.46;100585.31;10443702;28;20063;-83
2023/12/12 06:11:49;;;;;;;6.00;5.47;;;;;;;28.78;55.39;100585.41;10425938;28;20048;-82
2023/12/12 06:16:50;;;;;;;0.10;0.10;;;;;;;28.48;57.57;100591.44;10451356;28;20044;-83
2023/12/12 06:21:53;;;;;;;0.00;0.00;;;;;;;28.58;57.41;100583.84;10456865;28;20047;-83
2023/12/12 06:26:56;;;;;;;0.00;0.00;;;;;;;29.72;57.13;100584.50;10428360;28;20040;-84
2023/12/12 06:31:58;;;;;;;0.00;0.00;;;;;;;29.11;56.45;100584.47;10446593;28;20051;-83
2023/12/12 06:37:00;;;;;;;0.00;0.00;;;;;;;28.27;58.32;100585.50;10433552;28;20049;-83
2023/12/12 06:42:04;;;;;;;0.35;0.17;;;;;;;28.18;58.05;100588.66;10452007;28;20041;-83
2023/12/12 06:47:06;;;;;;;0.00;0.00;;;;;;;29.80;56.21;100585.84;10456285;28;20105;-83
2023/12/12 06:52:08;;;;;;;0.03;0.03;;;;;;;29.48;55.57;100581.50;10427021;28;20118;-83
2023/12/12 06:57:10;;;;;;;0.00;0.00;;;;;;;28.21;57.12;100590.28;10422577;28;20071;-83
2023/12/12 07:02:12;;;;;;;0.00;0.00;;;;;;;27.23;59.32;100585.44;10454745;28;20480;-83
2023/12/12 07:07:14;;;;;;;0.00;0.00;;;;;;;29.89;56.78;100578.16;10442091;28;20041;-84
2023/12/12 07:12:16;;;;;;;0.93;0.30;;;;;;;29.90;57.50;100571.03;10438246;28;20546;-83
2023/12/12 07:17:18;;;;;;;0.00;0.00;;;;;;;30.11;55.95;100578.69;10426342;28;20048;-84
2023/12/12 07:22:21;;;;;;;0.05;0.05;;;;;;;31.22;55.54;100558.38;10417871;28;20073;-84
2023/12/12 07:27:23;;;;;;;0.00;0.00;;;;;;;29.11;59.08;100552.63;10460406;28;20045;-84
2023/12/12 07:32:26;;;;;;;0.00;0.00;;;;;;;30.20;58.76;100546.22;10451280;28;20091;-84
2023/12/12 07:37:28;;;;;;;1.05;0.55;;;;;;;27.78;62.71;100545.69;10452059;28;20052;-84
2023/12/12 07:42:30;;;;;;;0.05;0.03;;;;;;;29.60;62.32;100535.66;10448038;28;20052;-84
2023/12/12 07:47:33;;;;;;;0.00;0.00;;;;;;;29.78;62.85;100530.19;10450325;28;20051;-84
2023/12/12 07:52:44;;;;;;;0.10;0.10;;;;;;;27.22;65.55;100528.19;10445904;28;20053;-84
2023/12/12 07:57:46;;;;;;;0.10;0.10;;;;;;;28.54;63.61;100520.50;10442251;28;20377;-84
2023/12/12 08:02:48;;;;;;;0.27;0.10;;;;;;;28.59;64.66;100524.63;10430136;28;20049;-84
2023/12/12 08:07:49;;;;;;;0.00;0.00;;;;;;;27.94;66.97;100529.88;10443961;28;20079;-84
2023/12/12 08:12:51;;;;;;;1.65;1.17;;;;;;;28.55;66.09;100528.38;10443509;28;20094;-84
2023/12/12 08:17:53;;;;;;;0.22;0.15;;;;;;;26.98;67.19;100516.19;10424396;28;20063;-84
2023/12/12 08:22:56;;;;;;;0.65;0.50;;;;;;;28.26;65.94;100506.16;10443709;28;20037;-83
2023/12/12 08:27:58;;;;;;;0.00;0.00;;;;;;;28.76;66.03;100501.63;10462955;28;20090;-84
2023/12/12 08:33:00;;;;;;;0.55;0.30;;;;;;;28.48;66.76;100500.50;10451199;28;20044;-84
2023/12/12 08:38:02;;;;;;;0.00;0.00;;;;;;;29.88;65.98;100495.94;10447129;28;20883;-84
2023/12/12 08:43:04;;;;;;;0.70;0.55;;;;;;;29.42;65.28;100503.09;10437667;28;20072;-84
2023/12/12 08:48:07;;;;;;;0.20;0.20;;;;;;;28.07;68.87;100496.53;10429273;28;20048;-84
2023/12/12 08:53:09;;;;;;;0.40;0.32;;;;;;;29.80;67.82;100490.25;10434456;28;20037;-84
2023/12/12 08:58:11;;;;;;;0.50;0.40;;;;;;;28.09;69.35;100489.38;10442681;28;20124;-84
2023/12/12 09:03:12;;;;;;;0.00;0.00;;;;;;;30.33;67.86;100471.91;10420391;28;20055;-84
2023/12/12 09:08:14;;;;;;;0.10;0.10;;;;;;;29.92;68.75;100476.25;10449127;28;20045;-84
2023/12/12 09:13:16;;;;;;;5.38;0.35;;;;;;;31.24;67.38;100468.63;10467472;28;20126;-84
2023/12/12 09:18:19;;;;;;;1.17;0.43;;;;;;;28.83;68.24;100465.84;10436238;28;20519;-84
2023/12/12 09:23:22;;;;;;;2.50;0.68;;;;;;;30.66;66.97;100460.91;10443527;28;20144;-84
2023/12/12 09:28:24;;;;;;;0.20;0.08;;;;;;;30.47;68.71;100450.59;10412884;28;20073;-84
2023/12/12 09:33:26;;;;;;;2.65;0.63;;;;;;;31.42;66.88;100439.03;10432330;28;20072;-84
2023/12/12 09:38:28;;;;;;;0.17;0.17;;;;;;;30.65;68.03;100435.28;10416298;28;20131;-84
2023/12/12 09:43:35;;;;;;;0.00;0.00;;;;;;;30.49;69.37;100423.94;10419675;28;20050;-84
2023/12/12 09:48:38;;;;;;;1.65;0.38;;;;;;;29.20;68.11;100423.06;10428807;28;20041;-84
2023/12/12 09:53:47;;;;;;;0.00;0.00;;;;;;;32.01;67.58;100402.97;10431613;28;20094;-84
2023/12/12 09:58:49;;;;;;;0.85;0.22;;;;;;;29.79;69.75;100388.50;10425811;28;20532;-84
2023/12/12 10:03:54;;;;;;;0.30;0.30;;;;;;;32.21;66.58;100383.72;10443432;28;20072;-84
2023/12/12 10:08:57;;;;;;;0.00;0.00;;;;;;;32.47;65.99;100377.47;10443488;28;20055;-84
2023/12/12 10:14:00;;;;;;;1.45;0.55;;;;;;;32.05;65.97;100370.66;10433929;28;20041;-84
2023/12/12 10:19:03;;;;;;;0.03;0.03;;;;;;;32.70;67.71;100351.69;10436076;28;20102;-84
2023/12/12 10:24:05;;;;;;;0.43;0.22;;;;;;;31.48;67.12;100361.41;10438078;28;20051;-82
2023/12/12 10:29:07;;;;;;;2.13;0.40;;;;;;;29.32;69.96;100348.06;10452669;28;20037;-83
2023/12/12 10:34:08;;;;;;;0.13;0.13;;;;;;;30.14;68.25;100327.00;10443634;28;20131;-84
2023/12/12 10:39:14;;;;;;;0.22;0.22;;;;;;;30.99;70.06;100312.47;10445690;28;20067;-84
2023/12/12 10:44:20;;;;;;;0.50;0.20;;;;;;;29.71;69.83;100311.16;10436719;28;20041;-84
2023/12/12 10:49:28;;;;;;;0.20;0.20;;;;;;;28.79;71.25;100316.75;10425362;28;20071;-83
2023/12/12 10:54:33;;;;;;;7.95;0.65;;;;;;;29.14;73.85;100307.59;10438738;28;20079;-83
2023/12/12 10:59:37;;;;;;;0.57;0.57;;;;;;;29.17;72.25;100290.63;10437984;28;20063;-83
2023/12/12 11:05:00;;;;;;;1.85;1.08;;;;;;;29.27;73.91;100289.13;10430814;28;20078;-84
2023/12/12 11:10:10;;;;;;;4.28;1.00;;;;;;;29.06;70.43;100273.59;10441377;28;20049;-83
2023/12/12 11:15:14;;;;;;;1.00;1.00;;;;;;;29.13;71.57;100261.66;10436655;28;20048;-83
2023/12/12 11:20:19;;;;;;;0.47;0.38;;;;;;;29.87;71.22;100252.63;10438656;28;20048;-83
2023/12/12 11:25:21;;;;;;;0.65;0.65;;;;;;;30.31;70.57;100250.59;10431630;28;20480;-84
2023/12/12 11:30:34;;;;;;;1.35;0.70;;;;;;;31.62;68.45;100254.78;10440678;28;20081;-84
2023/12/12 11:35:36;;;;;;;0.57;0.50;;;;;;;33.51;65.87;100232.41;10441058;28;20534;-85
2023/12/12 11:40:38;;;;;;;1.02;0.93;;;;;;;30.80;69.25;100235.78;10444545;28;20083;-84
2023/12/12 11:45:40;;;;;;;2.67;0.73;;;;;;;31.82;68.83;100223.22;10444355;28;20481;-84
2023/12/12 11:50:42;;;;;;;2.60;0.50;;;;;;;30.42;69.73;100220.69;10450743;28;20045;-84
2023/12/12 11:55:45;;;;;;;1.00;0.75;;;;;;;30.99;68.19;100206.94;10418089;28;20045;-84
2023/12/12 12:00:46;;;;;;;0.35;0.32;;;;;;;32.03;67.41;100194.09;10445685;28;20579;-84
2023/12/12 12:05:48;;;;;;;0.52;0.28;;;;;;;31.61;69.31;100183.84;10449728;28;20136;-83
2023/12/12 12:10:57;;;;;;;2.72;0.60;;;;;;;29.99;69.64;100180.13;10434059;28;20048;-84
2023/12/12 12:15:59;;;;;;;0.20;0.00;;;;;;;30.39;69.32;100164.13;10414129;28;20136;-84
2023/12/12 12:21:05;;;;;;;0.95;0.30;;;;;;;30.67;70.86;100156.91;10443810;28;20151;-83
2023/12/12 12:26:06;;;;;;;0.93;0.52;;;;;;;31.68;67.79;100147.03;10425787;28;20076;-84
2023/12/12 12:31:08;;;;;;;1.67;0.50;;;;;;;30.33;69.81;100143.28;10431041;28;20049;-83
2023/12/12 12:36:11;;;;;;;0.00;0.00;;;;;;;29.02;70.70;100134.19;10445259;28;20554;-84
2023/12/12 12:41:23;;;;;;;0.20;0.20;;;;;;;31.68;67.91;100114.22;10446114;28;20178;-84
2023/12/12 12:46:25;;;;;;;6.70;1.40;;;;;;;33.37;66.54;100104.53;10432076;28;20078;-85
2023/12/12 12:51:27;;;;;;;0.50;0.35;;;;;;;33.93;65.78;100103.41;10444442;28;20049;-84
2023/12/12 12:56:29;;;;;;;0.00;0.00;;;;;;;33.26;65.26;100102.72;10427468;28;20047;-84
2023/12/12 13:01:31;;;;;;;0.20;0.20;;;;;;;30.43;68.26;100108.09;10467495;28;20059;-84
2023/12/12 13:06:33;;;;;;;2.65;0.57;;;;;;;32.70;67.52;100074.34;10426771;28;20136;-83
2023/12/12 13:11:38;;;;;;;0.20;0.10;;;;;;;30.88;69.05;100073.03;10453511;28;20656;-83
2023/12/12 13:16:40;;;;;;;0.40;0.28;;;;;;;32.00;68.34;100060.28;10443358;28;20416;-84
2023/12/12 13:21:46;;;;;;;0.63;0.40;;;;;;;30.23;68.77;100055.41;10447267;28;20037;-82
2023/12/12 13:26:51;;;;;;;0.30;0.22;;;;;;;31.15;67.70;100039.13;10447286;28;20055;-84
2023/12/12 13:31:53;;;;;;;0.13;0.13;;;;;;;31.59;68.60;100043.84;10448965;28;20637;-84
2023/12/12 13:36:54;;;;;;;0.30;0.30;;;;;;;30.57;71.12;100027.41;10424595;28;20099;-84
2023/12/12 13:41:56;;;;;;;0.88;0.38;;;;;;;29.52;70.02;100024.91;10439848;28;20156;-82
2023/12/12 13:46:58;;;;;;;0.10;0.00;;;;;;;28.80;70.15;100023.38;10428463;28;20055;-83
2023/12/12 13:52:01;;;;;;;2.13;0.20;;;;;;;30.35;69.88;100013.00;10442772;28;20484;-83
2023/12/12 13:57:03;;;;;;;0.80;0.47;;;;;;;29.22;70.54;100002.09;10441103;28;20041;-82
2023/12/12 14:02:05;;;;;;;0.43;0.43;;;;;;;30.09;71.63;99991.78;10430947;28;20040;-83
2023/12/12 14:07:09;;;;;;;0.50;0.30;;;;;;;28.56;72.18;99991.34;10463884;28;20056;-83
2023/12/12 14:12:11;;;;;;;0.30;0.30;;;;;;;28.96;73.46;99986.97;10442793;28;20492;-83
2023/12/12 14:17:13;;;;;;;0.90;0.52;;;;;;;28.13;76.09;99981.66;10434910;28;20045;-83
2023/12/12 14:22:14;;;;;;;0.32;0.32;;;;;;;28.40;76.02;99967.59;10443294;28;20498;-83
2023/12/12 14:27:17;;;;;;;0.52;0.20;;;;;;;29.19;76.96;99959.84;10440578;28;20045;-82
2023/12/12 14:32:19;;;;;;;0.40;0.40;;;;;;;26.47;81.61;99963.94;10431953;28;20403;-81
2023/12/12 14:37:20;;;;;;;0.70;0.45;;;;;;;26.56;82.93;99964.28;10438772;28;20037;-82
2023/12/12 14:42:23;;;;;;;0.00;0.00;;;;;;;30.06;78.04;99953.00;10430470;28;20099;-82
2023/12/12 14:47:25;;;;;;;0.40;0.38;;;;;;;27.94;84.86;99939.56;10454641;28;20040;-82
2023/12/12 14:52:28;;;;;;;0.13;0.13;;;;;;;27.24;85.33;99941.94;10423585;28;20447;-83
2023/12/12 14:57:29;;;;;;;5.63;1.98;;;;;;;27.02;89.59;99931.78;10430005;28;20044;-83
2023/12/12 15:02:31;;;;;;;3.28;2.40;;;;;;;28.53;84.13;99927.94;10414276;28;20118;-85
2023/12/12 15:07:33;;;;;;;3.13;1.95;;;;;;;28.91;84.05;99928.09;10448673;28;20045;-85
2023/12/12 15:12:35;;;;;;;4.15;2.45;;;;;;;27.16;88.27;99923.03;10456907;28;20052;-85
2023/12/12 15:17:38;;;;;;;4.03;2.90;;;;;;;29.94;82.12;99913.19;10422528;28;20045;-85
2023/12/12 15:22:40;;;;;;;1.35;0.95;;;;;;;27.81;87.45;99908.53;10422769;28;20046;-85
2023/12/12 15:27:42;;;;;;;1.08;0.65;;;;;;;27.82;87.11;99904.13;10450001;28;20139;-86
2023/12/12 15:32:45;;;;;;;1.13;0.95;;;;;;;27.88;87.57;99893.16;10439709;28;20476;-85
2023/12/12 15:37:48;;;;;;;3.90;1.85;;;;;;;29.84;83.48;99891.72;10420819;28;20053;-85
2023/12/12 15:42:50;;;;;;;5.25;2.20;;;;;;;28.21;86.26;99891.13;10436759;28;20049;-84
2023/12/12 15:47:52;;;;;;;2.63;1.35;;;;;;;29.47;84.04;99889.03;10451288;28;20068;-84
2023/12/12 15:52:54;;;;;;;2.83;1.55;;;;;;;27.08;88.43;99882.97;10455417;28;20577;-84
2023/12/12 15:57:56;;;;;;;2.25;1.45;;;;;;;28.64;83.38;99869.78;10456384;28;20048;-85
2023/12/12 16:02:57;;;;;;;2.08;1.17;;;;;;;28.76;85.53;99861.06;10456327;28;20033;-83
2023/12/12 16:07:59;;;;;;;1.42;1.15;;;;;;;29.36;83.17;99850.84;10444532;28;20041;-90
2023/12/12 16:13:01;;;;;;;10.85;2.78;;;;;;;28.87;84.80;99828.53;10444003;28;20458;-83
2023/12/12 16:18:04;;;;;;;3.35;2.60;;;;;;;29.54;82.39;99823.94;10444475;28;20040;-85
2023/12/12 16:23:06;;;;;;;6.47;4.72;;;;;;;31.26;79.92;99806.84;10448123;28;20041;-85
2023/12/12 16:28:07;;;;;;;4.40;3.53;;;;;;;31.11;78.97;99802.72;10439997;28;20040;-85
2023/12/12 16:33:11;;;;;;;1.80;1.52;;;;;;;29.24;80.40;99819.81;10461299;28;20403;-85
2023/12/12 16:38:18;;;;;;;1.00;0.75;;;;;;;29.31;82.26;99805.19;10461454;28;20096;-84
2023/12/12 16:43:20;;;;;;;7.93;1.17;;;;;;;30.15;81.38;99785.97;10442547;28;20049;-84
2023/12/12 16:48:22;;;;;;;0.70;0.70;;;;;;;30.30;82.00;99782.19;10459653;28;20052;-84
2023/12/12 16:53:24;;;;;;;3.53;1.80;;;;;;;29.98;81.21;99777.44;10455608;28;20393;-84
2023/12/12 16:58:26;;;;;;;2.50;0.57;;;;;;;28.84;83.06;99770.41;10453264;28;20037;-84
2023/12/12 17:03:28;;;;;;;1.27;0.65;;;;;;;28.44;84.75;99771.28;10435447;28;20045;-83
2023/12/12 17:08:30;;;;;;;1.45;0.50;;;;;;;30.46;81.05;99765.09;10431731;28;20400;-84
2023/12/12 17:13:32;;;;;;;0.50;0.40;;;;;;;29.32;83.41;99759.16;10430276;28;20057;-85
2023/12/12 17:18:34;;;;;;;2.88;1.90;;;;;;;30.37;81.10;99751.53;10429823;28;20044;-85
2023/12/12 17:23:36;;;;;;;0.88;0.65;;;;;;;27.32;89.41;99764.31;10448863;28;20044;-85
2023/12/12 17:28:38;;;;;;;1.15;0.57;;;;;;;28.69;85.58;99752.88;10456198;28;20131;-84
2023/12/12 17:33:40;;;;;;;1.63;0.98;;;;;;;29.39;81.42;99760.41;10431294;28;20056;-84
2023/12/12 17:38:43;;;;;;;1.65;0.90;;;;;;;29.93;84.38;99731.81;10444059;28;20060;-85
2023/12/12 17:43:44;;;;;;;5.25;2.45;;;;;;;29.07;84.92;99738.81;10459048;28;20044;-84
2023/12/12 17:48:46;;;;;;;15.57;1.75;;;;;;;28.18;87.55;99726.19;10453553;28;20514;-84
2023/12/12 17:53:48;;;;;;;7.07;3.40;;;;;;;28.96;83.69;99737.75;10445430;28;20560;-83
2023/12/12 17:58:50;;;;;;;1.73;0.63;;;;;;;30.50;80.46;99713.38;10465145;28;20066;-85
2023/12/12 18:03:53;;;;;;;1.98;1.00;;;;;;;29.15;81.71;99717.91;10438958;28;20045;-85
2023/12/12 18:08:55;;;;;;;0.40;0.40;;;;;;;29.21;81.15;99719.28;10449673;28;20040;-84
2023/12/12 18:14:00;;;;;;;2.08;1.27;;;;;;;30.49;79.97;99696.59;10447608;28;20036;-85
2023/12/12 18:19:03;;;;;;;2.25;1.48;;;;;;;30.64;80.02;99699.91;10449314;28;20136;-85
2023/12/12 18:24:07;;;;;;;5.30;1.65;;;;;;;29.98;80.88;99708.41;10447423;28;20119;-85
2023/12/12 18:29:11;;;;;;;2.05;1.27;;;;;;;31.01;79.34;99707.66;10442397;28;20044;-85
2023/12/12 18:34:13;;;;;;;0.98;0.77;;;;;;;30.28;81.31;99693.78;10442621;28;20507;-85
2023/12/12 18:39:15;;;;;;;0.57;0.32;;;;;;;28.83;83.81;99694.50;10440072;28;20505;-85
2023/12/12 18:44:17;;;;;;;0.55;0.52;;;;;;;29.78;80.71;99685.13;10440993;28;20047;-85
2023/12/12 18:49:19;;;;;;;1.00;0.73;;;;;;;30.25;80.35;99675.44;10458220;28;20035;-85
2023/12/12 18:54:21;;;;;;;1.58;1.35;;;;;;;27.85;83.72;99682.47;10445718;28;20033;-84
2023/12/12 18:59:24;;;;;;;1.17;1.08;;;;;;;29.18;82.46;99682.34;10431940;28;20048;-84
2023/12/12 19:04:26;;;;;;;0.30;0.30;;;;;;;29.47;79.94;99674.13;10453619;28;20049;-84
2023/12/12 19:09:28;;;;;;;1.02;0.80;;;;;;;30.46;79.42;99669.44;10432800;28;20500;-85
2023/12/12 19:14:30;;;;;;;2.03;1.42;;;;;;;29.73;81.74;99662.44;10440961;28;20037;-84
2023/12/12 19:19:32;;;;;;;3.13;1.67;;;;;;;30.47;78.06;99665.81;10451504;28;20135;-84
2023/12/12 19:24:38;;;;;;;3.40;1.45;;;;;;;28.70;78.21;99673.31;10443589;28;20128;-84
2023/12/12 19:29:41;;;;;;;0.63;0.47;;;;;;;29.63;79.01;99665.91;10457815;28;20053;-84
2023/12/12 19:34:43;;;;;;;6.38;1.10;;;;;;;31.50;75.74;99648.84;10455591;28;20468;-85
2023/12/12 19:39:46;;;;;;;1.88;1.05;;;;;;;29.34;78.59;99661.75;10435134;28;20059;-84
2023/12/12 19:44:48;;;;;;;1.70;1.00;;;;;;;28.58;78.03;99658.22;10447182;28;20048;-84
2023/12/12 19:49:49;;;;;;;1.75;1.17;;;;;;;28.85;79.40;99657.31;10452668;28;20127;-84
2023/12/12 19:54:51;;;;;;;2.47;0.52;;;;;;;30.19;77.13;99646.69;10462342;28;20389;-85
2023/12/12 19:59:53;;;;;;;1.40;1.02;;;;;;;29.94;73.91;99653.84;10456199;28;20143;-85
2023/12/12 20:04:56;;;;;;;3.08;2.13;;;;;;;30.65;73.45;99652.91;10447479;28;20076;-85
2023/12/12 20:10:01;;;;;;;4.70;2.45;;;;;;;31.22;73.94;99645.78;10439922;28;20076;-84
2023/12/12 20:15:03;;;;;;;8.93;2.65;;;;;;;32.18;71.75;99651.22;10443898;28;20072;-85
2023/12/12 20:20:07;;;;;;;12.52;4.30;;;;;;;30.40;73.87;99649.47;10442405;28;20051;-85
2023/12/12 20:25:09;;;;;;;6.07;4.22;;;;;;;30.02;73.47;99640.84;10453463;28;20041;-85
2023/12/12 20:30:13;;;;;;;8.68;1.92;;;;;;;28.83;75.90;99640.66;10448221;28;20051;-84
2023/12/12 20:35:15;;;;;;;2.17;0.82;;;;;;;28.84;79.31;99642.34;10464155;28;20047;-84
2023/12/12 20:40:16;;;;;;;1.45;0.60;;;;;;;29.32;76.97;99637.13;10444613;28;20136;-84
2023/12/12 20:45:18;;;;;;;0.57;0.45;;;;;;;27.77;80.14;99631.84;10458098;28;20044;-84
2023/12/12 20:50:20;;;;;;;0.45;0.25;;;;;;;29.08;75.19;99627.31;10469088;28;20045;-85
2023/12/12 20:55:22;;;;;;;0.60;0.60;;;;;;;30.52;74.51;99616.69;10463599;28;20462;-85
2023/12/12 21:00:27;;;;;;;0.50;0.50;;;;;;;28.79;76.88;99619.66;10446068;28;20049;-84
2023/12/12 21:05:29;;;;;;;0.40;0.38;;;;;;;29.35;75.47;99621.00;10429305;28;20440;-84
2023/12/12 21:10:31;;;;;;;1.20;0.40;;;;;;;27.60;78.90;99630.31;10426954;28;20135;-84
2023/12/12 21:15:33;;;;;;;0.30;0.30;;;;;;;27.97;79.33;99619.06;10442495;28;20041;-84
2023/12/12 21:20:35;;;;;;;0.55;0.40;;;;;;;27.97;78.89;99625.22;10452236;28;20052;-84
2023/12/12 21:25:37;;;;;;;2.20;1.20;;;;;;;28.88;78.50;99634.06;10440922;28;20076;-84
2023/12/12 21:30:40;;;;;;;0.20;0.20;;;;;;;30.80;74.57;99626.94;10427733;28;20140;-84
2023/12/12 21:35:43;;;;;;;0.10;0.10;;;;;;;29.06;77.46;99650.47;10459791;28;20082;-84
2023/12/12 21:40:44;;;;;;;3.78;0.85;;;;;;;27.51;78.86;99646.78;10443776;28;20099;-84
2023/12/12 21:45:47;;;;;;;0.38;0.30;;;;;;;28.40;78.58;99642.69;10439022;28;20095;-84
2023/12/12 21:50:48;;;;;;;4.32;0.82;;;;;;;28.26;80.53;99634.84;10430235;28;20073;-85
2023/12/12 21:55:50;;;;;;;0.25;0.25;;;;;;;28.65;79.00;99631.22;10445157;28;20381;-85
2023/12/12 22:00:54;;;;;;;0.20;0.20;;;;;;;28.18;80.25;99625.59;10452429;28;20048;-84
2023/12/12 22:05:56;;;;;;;0.50;0.35;;;;;;;27.69;79.92;99618.28;10455787;28;20118;-85
2023/12/12 22:10:57;;;;;;;0.25;0.20;;;;;;;27.04;83.31;99614.50;10455095;28;20080;-85
2023/12/12 22:16:00;;;;;;;0.10;0.10;;;;;;;29.58;77.95;99626.44;10428339;28;20045;-87
2023/12/12 22:21:02;;;;;;;1.15;0.47;;;;;;;27.73;80.86;99625.09;10453477;28;20041;-83
2023/12/12 22:26:04;;;;;;;0.30;0.30;;;;;;;27.94;80.33;99616.66;10435637;28;20480;-84
2023/12/12 22:31:06;;;;;;;0.30;0.30;;;;;;;28.22;81.18;99617.44;10449087;28;20040;-85
2023/12/12 22:36:19;;;;;;;0.00;0.00;;;;;;;28.18;82.57;99609.69;10455897;28;20045;-85
2023/12/12 22:41:20;;;;;;;0.30;0.20;;;;;;;27.08;84.21;99594.84;10432405;28;20087;-85
2023/12/12 22:46:23;;;;;;;0.50;0.40;;;;;;;28.89;79.87;99603.09;10454432;28;20091;-86
2023/12/12 22:51:25;;;;;;;1.05;1.00;;;;;;;28.95;79.15;99587.63;10443812;28;20082;-85
2023/12/12 22:56:27;;;;;;;0.28;0.20;;;;;;;29.31;79.30;99593.00;10441966;28;20443;-85
2023/12/12 23:01:30;;;;;;;0.00;0.00;;;;;;;29.79;78.71;99597.41;10443495;28;20045;-85
2023/12/12 23:06:33;;;;;;;0.13;0.10;;;;;;;28.86;80.76;99608.59;10469875;28;20451;-85
2023/12/12 23:11:35;;;;;;;0.38;0.22;;;;;;;29.07;78.01;99600.91;10438074;28;20084;-84
2023/12/12 23:16:37;;;;;;;0.00;0.00;;;;;;;29.24;79.69;99599.69;10438409;28;20073;-85